SWA1624 KDAL-KOKC
Flight info
| Callsign | SWA1624 |
|---|---|
| Flight time | 0h 37m |
| Altitude | 28000 |
| Route | SWTSR7 ZEMMA TSDEL3 |
| Aircraft | B737/M-SDE2E3FGHIRWXY/LB1 |
Departure
| Time | 2026-04-12 02:37 |
|---|---|
| Airport | Dallas Love Field (KDAL) |
Arrival
| Time | 2026-04-12 03:14 |
|---|---|
| Airport | OKC Will Rogers World Airport (KOKC) |
| Time | Latitude | Longitude | Altitude | Speed | Heading |
|---|---|---|---|---|---|
| 2026-04-12 02:13 | 32.84644 | -96.85140 | 479 ft | 0 kts | 180° |
| 2026-04-12 02:29 | 32.84663 | -96.85139 | 477 ft | 4 kts | 180° |
| 2026-04-12 02:29 | 32.84689 | -96.85140 | 480 ft | 4 kts | 178° |
| 2026-04-12 02:29 | 32.84716 | -96.85142 | 478 ft | 4 kts | 169° |
| 2026-04-12 02:30 | 32.84740 | -96.85152 | 476 ft | 4 kts | 131° |
| 2026-04-12 02:30 | 32.84746 | -96.85164 | 476 ft | 1 kts | 90° |
| 2026-04-12 02:32 | 32.84746 | -96.85160 | 475 ft | 1 kts | 90° |
| 2026-04-12 02:32 | 32.84746 | -96.85146 | 478 ft | 2 kts | 90° |
| 2026-04-12 02:32 | 32.84746 | -96.85124 | 478 ft | 3 kts | 90° |
| 2026-04-12 02:32 | 32.84746 | -96.85093 | 482 ft | 4 kts | 91° |
| 2026-04-12 02:33 | 32.84745 | -96.85061 | 482 ft | 4 kts | 91° |
| 2026-04-12 02:33 | 32.84744 | -96.85030 | 482 ft | 4 kts | 90° |
| 2026-04-12 02:33 | 32.84744 | -96.84979 | 483 ft | 10 kts | 90° |
| 2026-04-12 02:33 | 32.84744 | -96.84875 | 483 ft | 15 kts | 88° |
| 2026-04-12 02:34 | 32.84809 | -96.84798 | 481 ft | 15 kts | 340° |
| 2026-04-12 02:34 | 32.84895 | -96.84897 | 484 ft | 20 kts | 315° |
| 2026-04-12 02:34 | 32.85008 | -96.85027 | 484 ft | 25 kts | 314° |
| 2026-04-12 02:34 | 32.85140 | -96.85181 | 484 ft | 27 kts | 316° |
| 2026-04-12 02:35 | 32.85270 | -96.85330 | 484 ft | 25 kts | 315° |
| 2026-04-12 02:35 | 32.85390 | -96.85470 | 483 ft | 23 kts | 316° |
| 2026-04-12 02:35 | 32.85503 | -96.85601 | 483 ft | 22 kts | 315° |
| 2026-04-12 02:35 | 32.85606 | -96.85721 | 483 ft | 18 kts | 317° |
| 2026-04-12 02:36 | 32.85695 | -96.85694 | 481 ft | 16 kts | 58° |
| 2026-04-12 02:36 | 32.85655 | -96.85595 | 481 ft | 15 kts | 136° |
| 2026-04-12 02:36 | 32.85628 | -96.85563 | 485 ft | 0 kts | 135° |
| 2026-04-12 02:36 | 32.85600 | -96.85531 | 483 ft | 27 kts | 135° |
| 2026-04-12 02:37 | 32.85270 | -96.85149 | 486 ft | 103 kts | 135° |
| 2026-04-12 02:37 | 32.84607 | -96.84379 | 563 ft | 157 kts | 136° |
| 2026-04-12 02:37 | 32.83771 | -96.83424 | 1095 ft | 178 kts | 139° |
| 2026-04-12 02:37 | 32.82809 | -96.82357 | 1640 ft | 196 kts | 142° |
| 2026-04-12 02:38 | 32.81769 | -96.81277 | 2372 ft | 206 kts | 144° |
| 2026-04-12 02:38 | 32.80585 | -96.80095 | 2801 ft | 235 kts | 143° |
| 2026-04-12 02:38 | 32.79369 | -96.78815 | 3935 ft | 231 kts | 143° |
| 2026-04-12 02:38 | 32.78123 | -96.77528 | 4767 ft | 245 kts | 142° |
| 2026-04-12 02:39 | 32.76847 | -96.76163 | 5673 ft | 251 kts | 142° |
| 2026-04-12 02:39 | 32.75560 | -96.74743 | 5906 ft | 255 kts | 140° |
| 2026-04-12 02:39 | 32.74270 | -96.73217 | 6479 ft | 262 kts | 139° |
| 2026-04-12 02:39 | 32.72999 | -96.71698 | 7636 ft | 258 kts | 140° |
| 2026-04-12 02:40 | 32.71692 | -96.70165 | 7934 ft | 268 kts | 140° |
| 2026-04-12 02:40 | 32.70365 | -96.68607 | 8029 ft | 270 kts | 139° |
| 2026-04-12 02:40 | 32.69084 | -96.66974 | 8710 ft | 279 kts | 128° |
| 2026-04-12 02:40 | 32.68324 | -96.64811 | 9661 ft | 292 kts | 105° |
| 2026-04-12 02:41 | 32.68156 | -96.62356 | 10411 ft | 306 kts | 95° |
| 2026-04-12 02:41 | 32.68129 | -96.59715 | 10653 ft | 334 kts | 94° |
| 2026-04-12 02:41 | 32.68359 | -96.56861 | 10905 ft | 363 kts | 76° |
| 2026-04-12 02:41 | 32.69578 | -96.54182 | 11579 ft | 377 kts | 50° |
| 2026-04-12 02:42 | 32.71673 | -96.52309 | 12406 ft | 381 kts | 23° |
| 2026-04-12 02:42 | 32.74195 | -96.51323 | 13239 ft | 384 kts | 15° |
| 2026-04-12 02:42 | 32.76791 | -96.50460 | 14021 ft | 389 kts | 14° |
| 2026-04-12 02:43 | 32.82146 | -96.50083 | 15442 ft | 390 kts | 341° |
| 2026-04-12 02:43 | 32.84611 | -96.51373 | 16232 ft | 386 kts | 322° |
| 2026-04-12 02:43 | 32.86744 | -96.53307 | 17000 ft | 387 kts | 317° |
| 2026-04-12 02:43 | 32.88806 | -96.55335 | 17707 ft | 391 kts | 316° |
| 2026-04-12 02:44 | 32.90898 | -96.57436 | 18403 ft | 396 kts | 316° |
| 2026-04-12 02:44 | 32.93009 | -96.59556 | 19022 ft | 399 kts | 316° |
| 2026-04-12 02:44 | 32.95153 | -96.61693 | 19674 ft | 402 kts | 316° |
| 2026-04-12 02:44 | 32.97318 | -96.63836 | 20313 ft | 405 kts | 316° |
| 2026-04-12 02:45 | 32.99501 | -96.65985 | 20937 ft | 409 kts | 316° |
| 2026-04-12 02:45 | 33.01707 | -96.68151 | 21538 ft | 413 kts | 316° |
| 2026-04-12 02:45 | 33.03935 | -96.70336 | 22156 ft | 416 kts | 316° |
| 2026-04-12 02:45 | 33.06178 | -96.72534 | 22750 ft | 419 kts | 316° |
| 2026-04-12 02:46 | 33.08440 | -96.74752 | 23326 ft | 422 kts | 316° |
| 2026-04-12 02:46 | 33.10718 | -96.76987 | 23860 ft | 426 kts | 316° |
| 2026-04-12 02:46 | 33.13013 | -96.79242 | 24332 ft | 429 kts | 316° |
| 2026-04-12 02:46 | 33.15290 | -96.81479 | 24804 ft | 431 kts | 316° |
| 2026-04-12 02:47 | 33.17613 | -96.83764 | 25291 ft | 433 kts | 316° |
| 2026-04-12 02:47 | 33.19946 | -96.86060 | 25789 ft | 435 kts | 316° |
| 2026-04-12 02:47 | 33.22292 | -96.88370 | 26255 ft | 438 kts | 316° |
| 2026-04-12 02:47 | 33.24645 | -96.90691 | 26690 ft | 441 kts | 316° |
| 2026-04-12 02:48 | 33.27015 | -96.93030 | 27140 ft | 443 kts | 316° |
| 2026-04-12 02:48 | 33.29389 | -96.95373 | 27709 ft | 442 kts | 316° |
| 2026-04-12 02:48 | 33.31761 | -96.97716 | 27975 ft | 445 kts | 315° |
| 2026-04-12 02:48 | 33.34154 | -97.00083 | 27969 ft | 444 kts | 315° |
| 2026-04-12 02:49 | 33.36526 | -97.02428 | 27958 ft | 440 kts | 315° |
| 2026-04-12 02:49 | 33.38085 | -97.03970 | 27965 ft | 438 kts | 315° |
| 2026-04-12 02:49 | 33.40435 | -97.06299 | 27982 ft | 439 kts | 315° |
| 2026-04-12 02:49 | 33.42836 | -97.08579 | 27981 ft | 444 kts | 322° |
| 2026-04-12 02:50 | 33.45694 | -97.10091 | 28010 ft | 456 kts | 340° |
| 2026-04-12 02:50 | 33.49920 | -97.10495 | 28025 ft | 467 kts | 1° |
| 2026-04-12 02:50 | 33.52109 | -97.10253 | 28015 ft | 468 kts | 2° |
| 2026-04-12 02:51 | 33.58587 | -97.09334 | 28009 ft | 468 kts | 4° |
| 2026-04-12 02:51 | 33.65057 | -97.08408 | 27999 ft | 467 kts | 3° |
| 2026-04-12 02:51 | 33.68240 | -97.07981 | 27994 ft | 466 kts | 2° |
| 2026-04-12 02:52 | 33.71466 | -97.07561 | 27996 ft | 465 kts | 2° |
| 2026-04-12 02:52 | 33.74679 | -97.07151 | 27997 ft | 465 kts | 2° |
| 2026-04-12 02:52 | 33.77897 | -97.06744 | 27953 ft | 465 kts | 2° |
| 2026-04-12 02:52 | 33.81121 | -97.06337 | 27947 ft | 465 kts | 2° |
| 2026-04-12 02:53 | 33.84340 | -97.05930 | 27942 ft | 466 kts | 2° |
| 2026-04-12 02:53 | 33.87565 | -97.05520 | 27941 ft | 466 kts | 2° |
| 2026-04-12 02:53 | 33.94022 | -97.04697 | 27936 ft | 467 kts | 2° |
| 2026-04-12 02:54 | 33.97253 | -97.04285 | 27944 ft | 467 kts | 2° |
| 2026-04-12 02:54 | 34.00487 | -97.03871 | 27945 ft | 467 kts | 2° |
| 2026-04-12 02:54 | 34.03717 | -97.03458 | 27952 ft | 467 kts | 2° |
| 2026-04-12 02:54 | 34.06953 | -97.03044 | 27950 ft | 468 kts | 2° |
| 2026-04-12 02:55 | 34.10193 | -97.02629 | 27954 ft | 468 kts | 2° |
| 2026-04-12 02:55 | 34.13434 | -97.02213 | 27955 ft | 468 kts | 2° |
| 2026-04-12 02:55 | 34.16672 | -97.01797 | 27956 ft | 468 kts | 2° |
| 2026-04-12 02:55 | 34.19914 | -97.01381 | 27955 ft | 466 kts | 2° |
| 2026-04-12 02:56 | 34.23120 | -97.00967 | 27627 ft | 459 kts | 2° |
| 2026-04-12 02:56 | 34.26275 | -97.00559 | 27146 ft | 454 kts | 2° |
| 2026-04-12 02:56 | 34.29393 | -97.00158 | 26639 ft | 448 kts | 2° |
| 2026-04-12 02:56 | 34.32483 | -96.99761 | 26070 ft | 445 kts | 2° |
| 2026-04-12 02:57 | 34.35548 | -96.99371 | 25512 ft | 441 kts | 1° |
| 2026-04-12 02:57 | 34.38509 | -96.99536 | 25190 ft | 423 kts | 345° |
| 2026-04-12 02:57 | 34.41254 | -97.00665 | 24505 ft | 414 kts | 328° |
| 2026-04-12 02:57 | 34.43792 | -97.02289 | 23909 ft | 412 kts | 327° |
| 2026-04-12 02:58 | 34.46304 | -97.03935 | 23303 ft | 410 kts | 327° |
| 2026-04-12 02:58 | 34.48810 | -97.05578 | 22701 ft | 408 kts | 327° |
| 2026-04-12 02:58 | 34.51298 | -97.07197 | 22140 ft | 404 kts | 327° |
| 2026-04-12 02:58 | 34.53777 | -97.08798 | 21598 ft | 401 kts | 327° |
| 2026-04-12 02:59 | 34.56236 | -97.10379 | 21053 ft | 398 kts | 328° |
| 2026-04-12 02:59 | 34.58679 | -97.11946 | 20519 ft | 396 kts | 328° |
| 2026-04-12 02:59 | 34.61108 | -97.13502 | 19984 ft | 393 kts | 328° |
| 2026-04-12 02:59 | 34.63526 | -97.15052 | 19426 ft | 392 kts | 328° |
| 2026-04-12 03:00 | 34.65903 | -97.16577 | 18889 ft | 391 kts | 328° |
| 2026-04-12 03:00 | 34.68300 | -97.18116 | 18328 ft | 390 kts | 328° |
| 2026-04-12 03:00 | 34.70691 | -97.19653 | 17712 ft | 388 kts | 328° |
| 2026-04-12 03:00 | 34.73068 | -97.21180 | 17168 ft | 384 kts | 328° |
| 2026-04-12 03:01 | 34.75425 | -97.22696 | 16595 ft | 382 kts | 328° |
| 2026-04-12 03:01 | 34.77775 | -97.24209 | 16013 ft | 381 kts | 328° |
| 2026-04-12 03:01 | 34.80072 | -97.25790 | 15431 ft | 378 kts | 325° |
| 2026-04-12 03:01 | 34.82296 | -97.27471 | 14873 ft | 375 kts | 324° |
| 2026-04-12 03:02 | 34.84489 | -97.29155 | 14520 ft | 367 kts | 324° |
| 2026-04-12 03:02 | 34.86621 | -97.30771 | 14296 ft | 356 kts | 324° |
| 2026-04-12 03:02 | 34.88687 | -97.32323 | 14132 ft | 343 kts | 324° |
| 2026-04-12 03:02 | 34.90695 | -97.33833 | 13802 ft | 337 kts | 324° |
| 2026-04-12 03:03 | 34.92686 | -97.35346 | 13369 ft | 334 kts | 324° |
| 2026-04-12 03:03 | 34.94646 | -97.36840 | 12943 ft | 331 kts | 324° |
| 2026-04-12 03:03 | 34.96593 | -97.38326 | 12522 ft | 328 kts | 324° |
| 2026-04-12 03:03 | 34.98493 | -97.39776 | 12115 ft | 326 kts | 324° |
| 2026-04-12 03:04 | 35.00409 | -97.41238 | 11706 ft | 323 kts | 324° |
| 2026-04-12 03:04 | 35.02310 | -97.42688 | 11301 ft | 321 kts | 324° |
| 2026-04-12 03:04 | 35.04204 | -97.44133 | 10899 ft | 320 kts | 324° |
| 2026-04-12 03:04 | 35.06086 | -97.45570 | 10457 ft | 319 kts | 324° |
| 2026-04-12 03:05 | 35.08090 | -97.46672 | 10126 ft | 313 kts | 344° |
| 2026-04-12 03:05 | 35.10210 | -97.46940 | 9952 ft | 300 kts | 355° |
| 2026-04-12 03:05 | 35.12276 | -97.47030 | 9559 ft | 294 kts | 355° |
| 2026-04-12 03:05 | 35.14291 | -97.47127 | 9213 ft | 287 kts | 355° |
| 2026-04-12 03:06 | 35.16271 | -97.47240 | 8880 ft | 281 kts | 354° |
| 2026-04-12 03:06 | 35.18226 | -97.47361 | 8555 ft | 283 kts | 354° |
| 2026-04-12 03:06 | 35.20216 | -97.47487 | 8237 ft | 290 kts | 354° |
| 2026-04-12 03:06 | 35.22263 | -97.47619 | 7876 ft | 298 kts | 354° |
| 2026-04-12 03:07 | 35.24328 | -97.47751 | 7523 ft | 294 kts | 354° |
| 2026-04-12 03:07 | 35.26341 | -97.47878 | 7356 ft | 284 kts | 354° |
| 2026-04-12 03:07 | 35.28290 | -97.48002 | 7215 ft | 277 kts | 354° |
| 2026-04-12 03:07 | 35.30167 | -97.48122 | 7012 ft | 272 kts | 354° |
| 2026-04-12 03:08 | 35.32058 | -97.48245 | 6745 ft | 271 kts | 354° |
| 2026-04-12 03:08 | 35.33936 | -97.48368 | 6470 ft | 270 kts | 354° |
| 2026-04-12 03:08 | 35.35815 | -97.48490 | 6163 ft | 269 kts | 354° |
| 2026-04-12 03:08 | 35.37655 | -97.48608 | 6049 ft | 261 kts | 354° |
| 2026-04-12 03:09 | 35.39458 | -97.48706 | 5786 ft | 261 kts | 357° |
| 2026-04-12 03:09 | 35.41286 | -97.48711 | 5477 ft | 263 kts | 359° |
| 2026-04-12 03:09 | 35.43112 | -97.48699 | 5185 ft | 261 kts | 359° |
| 2026-04-12 03:09 | 35.44927 | -97.48692 | 4809 ft | 260 kts | 359° |
| 2026-04-12 03:10 | 35.46721 | -97.48788 | 4449 ft | 254 kts | 347° |
| 2026-04-12 03:10 | 35.48278 | -97.49606 | 4141 ft | 236 kts | 314° |
| 2026-04-12 03:10 | 35.49257 | -97.51067 | 3879 ft | 211 kts | 284° |
| 2026-04-12 03:10 | 35.49654 | -97.52684 | 3628 ft | 189 kts | 266° |
| 2026-04-12 03:11 | 35.49713 | -97.54206 | 3403 ft | 167 kts | 249° |
| 2026-04-12 03:11 | 35.49471 | -97.55479 | 3269 ft | 142 kts | 235° |
| 2026-04-12 03:11 | 35.49058 | -97.56521 | 3051 ft | 130 kts | 224° |
| 2026-04-12 03:11 | 35.48503 | -97.57356 | 2886 ft | 121 kts | 214° |
| 2026-04-12 03:12 | 35.47886 | -97.57993 | 2740 ft | 115 kts | 205° |
| 2026-04-12 03:12 | 35.47196 | -97.58470 | 2659 ft | 116 kts | 196° |
| 2026-04-12 03:12 | 35.46435 | -97.58749 | 2504 ft | 112 kts | 183° |
| 2026-04-12 03:12 | 35.45654 | -97.58848 | 2363 ft | 114 kts | 182° |
| 2026-04-12 03:13 | 35.44877 | -97.58885 | 2216 ft | 110 kts | 178° |
| 2026-04-12 03:13 | 35.44081 | -97.58894 | 2072 ft | 120 kts | 180° |
| 2026-04-12 03:13 | 35.43221 | -97.58895 | 1916 ft | 124 kts | 177° |
| 2026-04-12 03:13 | 35.42350 | -97.58893 | 1727 ft | 128 kts | 178° |
| 2026-04-12 03:14 | 35.41452 | -97.58896 | 1539 ft | 128 kts | 178° |
| 2026-04-12 03:14 | 35.40548 | -97.58898 | 1342 ft | 129 kts | 177° |
| 2026-04-12 03:14 | 35.39716 | -97.58899 | 1290 ft | 101 kts | 180° |
| 2026-04-12 03:14 | 35.39227 | -97.58896 | 1292 ft | 40 kts | 180° |
| 2026-04-12 03:15 | 35.39029 | -97.58908 | 1293 ft | 23 kts | 197° |
| 2026-04-12 03:15 | 35.38977 | -97.59026 | 1293 ft | 14 kts | 272° |
| 2026-04-12 03:15 | 35.38977 | -97.59037 | 1293 ft | 0 kts | 272° |
| 2026-04-12 03:16 | 35.38977 | -97.59063 | 1292 ft | 7 kts | 269° |
| 2026-04-12 03:16 | 35.38979 | -97.59165 | 1291 ft | 16 kts | 276° |
| 2026-04-12 03:16 | 35.39074 | -97.59221 | 1291 ft | 18 kts | 360° |
| 2026-04-12 03:16 | 35.39208 | -97.59221 | 1293 ft | 20 kts | 0° |
| 2026-04-12 03:17 | 35.39350 | -97.59226 | 1294 ft | 18 kts | 343° |
| 2026-04-12 03:17 | 35.39384 | -97.59361 | 1296 ft | 18 kts | 270° |
| 2026-04-12 03:17 | 35.39384 | -97.59511 | 1297 ft | 17 kts | 270° |
| 2026-04-12 03:17 | 35.39386 | -97.59645 | 1296 ft | 8 kts | 276° |
| 2026-04-12 03:18 | 35.39392 | -97.59685 | 1296 ft | 5 kts | 282° |
| 2026-04-12 03:18 | 35.39405 | -97.59719 | 1296 ft | 5 kts | 314° |
| 2026-04-12 03:18 | 35.39436 | -97.59719 | 1296 ft | 5 kts | 30° |
| 2026-04-12 03:18 | 35.39458 | -97.59701 | 1296 ft | 0 kts | 34° |
| 2026-04-12 03:19 | 35.39461 | -97.59698 | 1296 ft | 1 kts | 35° |
| 2026-04-12 03:19 | 35.39462 | -97.59697 | 1296 ft | 0 kts | 35° |